New Lisbon, New York
Current Conditions -  °F | °C
As of 1:27 PM on Thursday 27 Nov 2014 (Local Time) from KRME Reporting Station
Light Snow Light Snow  
Wind Chill: 28°   Ceiling: 1200
Heat Index: 28°   Visibility: 1mi
Dew Point: 27°   Wind: 0mph
Humidity: 96%   Direction: NA
Pressure: 30.02"   Gusts: NA
Location:  42.59°N, 75.18°W
Report Text: KRME 271827Z 00000KT 1SM -SN BR SCT008 OVC012 M02/M03 A3002 RMK AO2 P0002 T10221028 RVRNO
Loading
Personal Weather Stations






























Interactive Weather Map New forecast layout! Learn more

10-Day Weather Forecast

Advertisements
Track Severe Weather on mobile